.
WxDataArchive / Data Records for 2009-07-14
2009-07-13 July 2009 2009-07-15

Data Records for Tuesday, 14 July 2009

Time	Temp	Chill	HIndex	Humid	Dewpt	 Wind 	HiWind	WindDir	Rain 	Barom 
-----	----	-----	------	-----	-----	------	------	-------	-----	----- 
00:00	61.6	61.6	61.6	54	44.8	0	1	292	0.00	30.092 
00:05	61.5	61.5	61.5	54	44.7	0	0	---	0.00	30.092 
00:10	61.3	61.3	61.3	54	44.5	0	0	---	0.00	30.092 
00:15	61.3	61.3	61.3	54	44.5	0	1	292	0.00	30.098 
00:20	61.2	61.2	61.2	55	44.9	0	1	292	0.00	30.098 
00:25	61.2	61.2	61.2	55	44.9	0	0	---	0.00	30.098 
00:30	61.0	61.0	61.0	55	44.7	0	0	---	0.00	30.100 
00:35	60.9	60.9	60.9	56	45.1	0	0	---	0.00	30.100 
00:40	60.7	60.7	60.7	57	45.4	0	0	---	0.00	30.100 
00:45	60.5	60.5	60.5	56	44.7	0	0	---	0.00	30.100 
00:50	60.4	60.4	60.4	57	45.1	0	0	---	0.00	30.100 
00:55	60.1	60.1	60.1	58	45.3	0	0	---	0.00	30.100 
01:00	59.9	59.9	59.9	58	45.1	0	0	---	0.00	30.101 
01:05	59.6	59.6	59.6	59	45.3	0	0	---	0.00	30.101 
01:10	59.5	59.5	59.5	60	45.6	0	0	---	0.00	30.101 
01:15	59.2	59.2	59.2	61	45.8	0	0	---	0.00	30.102 
01:20	58.9	58.9	58.9	61	45.5	0	0	---	0.00	30.102 
01:25	58.6	58.6	58.6	62	45.6	0	0	---	0.00	30.102 
01:30	58.4	58.4	58.4	62	45.4	0	0	---	0.00	30.104 
01:35	58.3	58.3	58.3	63	45.8	0	0	---	0.00	30.104 
01:40	58.1	58.1	58.1	63	45.6	0	0	---	0.00	30.104 
01:45	57.8	57.8	57.8	63	45.3	0	0	---	0.00	30.105 
01:50	57.6	57.6	57.6	64	45.5	0	0	---	0.00	30.105 
01:55	57.3	57.3	57.3	64	45.2	0	0	---	0.00	30.105 
02:00	57.2	57.2	57.2	65	45.5	0	0	---	0.00	30.103 
02:05	57.0	57.0	57.0	66	45.8	0	0	---	0.00	30.103 
02:10	57.0	57.0	57.0	65	45.4	0	0	---	0.00	30.103 
02:15	57.0	57.0	57.0	65	45.4	0	0	---	0.00	30.100 
02:20	57.2	57.2	57.2	65	45.5	0	0	---	0.00	30.100 
02:25	57.2	57.2	57.2	65	45.5	0	0	---	0.00	30.100 
02:30	57.2	57.2	57.2	65	45.5	0	0	---	0.00	30.095 
02:35	57.2	57.2	57.2	65	45.5	0	0	---	0.00	30.095 
02:40	57.2	57.2	57.2	65	45.5	0	0	---	0.00	30.095 
02:45	57.0	57.0	57.0	65	45.4	0	0	---	0.00	30.098 
02:50	56.9	56.9	56.9	65	45.3	0	0	---	0.00	30.098 
02:55	56.6	56.6	56.6	66	45.4	0	0	---	0.00	30.098 
03:00	56.3	56.3	56.3	67	45.5	0	0	---	0.00	30.098 
03:05	56.0	56.0	56.0	68	45.6	0	0	---	0.00	30.098 
03:10	55.7	55.7	55.7	69	45.7	0	0	---	0.00	30.098 
03:15	55.4	55.4	55.4	70	45.8	0	0	---	0.00	30.104 
03:20	55.1	55.1	55.1	70	45.5	0	0	---	0.00	30.104 
03:25	54.8	54.8	54.8	71	45.6	0	0	---	0.00	30.104 
03:30	54.5	54.5	54.5	72	45.7	0	0	---	0.00	30.104 
03:35	54.2	54.2	54.2	73	45.7	0	0	---	0.00	30.104 
03:40	54.1	54.1	54.1	73	45.6	0	0	---	0.00	30.104 
03:45	53.8	53.8	53.8	73	45.3	0	0	---	0.00	30.105 
03:50	53.5	53.5	53.5	75	45.8	0	0	---	0.00	30.105 
03:55	53.3	53.3	53.3	76	45.9	0	0	---	0.00	30.105 
04:00	53.1	53.1	53.1	77	46.1	0	0	---	0.00	30.105 
04:05	52.8	52.8	52.8	77	45.8	0	0	---	0.00	30.105 
04:10	52.6	52.6	52.6	78	45.9	0	0	---	0.00	30.105 
04:15	52.5	52.5	52.5	79	46.2	0	0	---	0.00	30.103 
04:20	52.2	52.2	52.2	80	46.2	0	0	---	0.00	30.103 
04:25	52.0	52.0	52.0	81	46.4	0	0	---	0.00	30.103 
04:30	51.9	51.9	51.9	81	46.3	0	0	---	0.00	30.105 
04:35	51.6	51.6	51.6	81	46.0	0	0	---	0.00	30.105 
04:40	51.4	51.4	51.4	82	46.1	0	0	---	0.00	30.105 
04:45	51.3	51.3	51.3	83	46.3	0	0	---	0.00	30.112 
04:50	51.1	51.1	51.1	83	46.1	0	0	---	0.00	30.112 
04:55	51.0	51.0	51.0	84	46.3	0	0	---	0.00	30.112 
05:00	50.8	50.8	50.8	84	46.1	0	0	---	0.00	30.117 
05:05	50.7	50.7	50.7	84	46.0	0	0	---	0.00	30.117 
05:10	50.5	50.5	50.5	85	46.2	0	0	---	0.00	30.117 
05:15	50.4	50.4	50.4	85	46.1	0	0	---	0.00	30.125 
05:20	50.2	50.2	50.2	86	46.2	0	0	---	0.00	30.125 
05:25	50.2	50.2	50.2	86	46.2	0	0	---	0.00	30.125 
05:30	50.1	50.1	50.1	87	46.4	0	0	---	0.00	30.133 
05:35	50.1	50.1	50.1	87	46.4	0	0	---	0.00	30.133 
05:40	49.9	49.9	49.9	87	46.2	0	0	---	0.00	30.133 
05:45	49.8	49.8	49.8	88	46.4	0	0	---	0.00	30.140 
05:50	49.8	49.8	49.8	88	46.4	0	0	---	0.00	30.140 
05:55	49.6	49.6	49.6	88	46.2	0	0	---	0.00	30.140 
06:00	49.6	49.6	49.6	88	46.2	0	0	---	0.00	30.153 
06:05	49.6	49.6	49.6	88	46.2	0	0	---	0.00	30.153 
06:10	49.6	49.6	49.6	88	46.2	0	0	---	0.00	30.153 
06:15	49.6	49.6	49.6	88	46.2	0	0	---	0.00	30.157 
06:20	49.6	49.6	49.6	89	46.5	0	0	---	0.00	30.157 
06:25	49.5	49.5	49.5	89	46.4	0	0	---	0.00	30.157 
06:30	49.5	49.5	49.5	89	46.4	0	0	---	0.00	30.159 
06:35	49.5	49.5	49.5	89	46.4	0	0	---	0.00	30.159 
06:40	49.4	49.4	49.4	89	46.3	0	0	---	0.00	30.159 
06:45	49.4	49.4	49.4	89	46.3	0	0	---	0.00	30.157 
06:50	49.4	49.4	49.4	90	46.6	0	0	---	0.00	30.157 
06:55	49.6	49.6	49.6	90	46.8	0	0	---	0.00	30.157 
07:00	49.8	49.8	49.8	91	47.3	0	0	---	0.00	30.166 
07:05	50.1	50.1	50.1	91	47.6	0	0	---	0.00	30.166 
07:10	50.4	50.4	50.4	91	47.9	0	0	---	0.00	30.166 
07:15	50.7	50.7	50.7	91	48.2	0	0	---	0.00	30.168 
07:20	51.1	51.1	51.1	91	48.6	0	0	---	0.00	30.168 
07:25	51.4	51.4	51.4	91	48.9	0	0	---	0.00	30.168 
07:30	52.0	52.0	52.0	91	49.5	0	0	---	0.00	30.172 
07:35	52.8	52.8	52.8	90	49.9	0	0	---	0.00	30.172 
07:40	53.5	53.5	53.5	89	50.3	0	0	---	0.00	30.172 
07:45	54.2	54.2	54.2	88	50.7	0	0	---	0.00	30.169 
07:50	55.0	55.0	55.0	86	50.9	0	0	---	0.00	30.169 
07:55	55.7	55.7	55.7	85	51.3	0	0	---	0.00	30.169 
08:00	56.5	56.5	56.5	83	51.4	0	0	---	0.00	30.176 
08:05	57.2	57.2	57.2	81	51.4	0	0	---	0.00	30.176 
08:10	57.8	57.8	57.8	80	51.7	0	0	---	0.00	30.176 
08:15	58.6	58.6	58.6	79	52.1	0	0	---	0.00	30.185 
08:20	59.2	59.2	59.2	77	52.0	0	0	---	0.00	30.185 
08:25	60.1	60.1	60.1	77	52.9	0	0	---	0.00	30.185 
08:30	61.2	61.2	61.2	66	49.7	0	1	292	0.00	30.185 
08:35	62.7	62.7	62.7	61	49.1	0	2	292	0.00	30.185 
08:40	64.3	64.3	64.3	56	48.3	1	3	22	0.00	30.185 
08:45	65.6	65.6	65.6	56	49.5	0	1	22	0.00	30.193 
08:50	66.8	66.8	66.8	49	47.0	0	2	22	0.00	30.193 
08:55	67.6	67.6	67.6	49	47.8	0	4	22	0.00	30.193 
09:00	68.1	68.1	68.1	47	47.1	1	2	90	0.00	30.193 
09:05	68.4	68.4	68.4	47	47.4	1	2	90	0.00	30.193 
09:10	68.8	68.8	68.8	44	46.0	1	4	90	0.00	30.193 
09:15	68.8	68.8	68.8	46	47.2	1	3	90	0.00	30.193 
09:20	68.9	68.9	68.9	48	48.4	1	3	90	0.00	30.193 
09:25	69.1	69.1	69.1	46	47.4	2	5	90	0.00	30.193 
09:30	69.4	69.4	69.4	47	48.3	1	5	90	0.00	30.191 
09:35	69.9	69.9	69.9	46	48.2	1	4	68	0.00	30.191 
09:40	70.3	70.3	70.3	48	49.7	1	3	68	0.00	30.191 
09:45	70.1	70.1	70.1	46	48.3	2	5	90	0.00	30.191 
09:50	69.9	69.9	69.9	48	49.3	1	4	90	0.00	30.191 
09:55	70.6	70.6	70.6	43	47.0	1	4	112	0.00	30.191 
10:00	70.9	70.9	70.9	43	47.3	2	5	90	0.00	30.183 
10:05	71.3	71.3	71.3	44	48.2	1	4	90	0.00	30.183 
10:10	71.8	71.8	71.8	40	46.2	1	4	90	0.00	30.183 
10:15	72.0	72.0	72.0	40	46.3	2	5	90	0.00	30.172 
10:20	72.3	72.3	72.3	39	45.9	1	3	68	0.00	30.172 
10:25	72.7	72.7	72.7	40	47.0	1	5	90	0.00	30.172 
10:30	72.8	72.8	72.8	39	46.4	2	6	90	0.00	30.172 
10:35	72.7	72.7	72.7	39	46.3	2	5	135	0.00	30.172 
10:40	73.2	73.2	73.2	38	46.1	2	5	90	0.00	30.172 
10:45	73.2	73.2	73.2	38	46.1	3	6	90	0.00	30.169 
10:50	73.5	73.5	73.5	37	45.6	2	5	112	0.00	30.169 
10:55	73.7	73.7	73.7	38	46.5	2	4	90	0.00	30.169 
11:00	74.0	74.0	74.0	38	46.8	1	4	90	0.00	30.162 
11:05	73.9	73.9	73.9	38	46.7	2	6	90	0.00	30.162 
11:10	74.4	74.4	74.4	39	47.8	1	2	135	0.00	30.162 
11:15	75.1	75.1	77.2	33	44.0	2	6	90	0.00	30.164 
11:20	75.4	75.4	77.4	35	45.8	1	4	112	0.00	30.164 
11:25	75.8	75.8	77.6	37	47.7	1	3	112	0.00	30.164 
11:30	76.1	76.1	77.6	35	46.4	1	6	90	0.00	30.162 
11:35	76.3	76.3	77.7	36	47.4	2	5	112	0.00	30.162 
11:40	76.3	76.3	77.7	35	46.6	2	4	90	0.00	30.162 
11:45	76.5	76.5	77.7	34	46.0	2	5	112	0.00	30.162 
11:50	76.3	76.3	77.5	32	44.3	2	6	112	0.00	30.162 
11:55	76.5	76.5	77.5	30	42.7	1	4	90	0.00	30.162 
12:00	76.7	76.7	77.7	32	44.6	2	5	90	0.00	30.162 
12:05	76.7	76.7	77.7	33	45.4	1	4	90	0.00	30.162 
12:10	77.0	77.0	77.7	30	43.2	2	6	68	0.00	30.162 
12:15	77.0	77.0	78.0	35	47.2	1	3	112	0.00	30.164 
12:20	77.2	77.2	77.8	30	43.3	2	5	90	0.00	30.164 
12:25	77.2	77.2	77.6	28	41.6	2	5	90	0.00	30.164 
12:30	77.2	77.2	77.7	29	42.5	2	4	90	0.00	30.166 
12:35	77.0	77.0	77.5	28	41.4	1	2	90	0.00	30.166 
12:40	77.2	77.2	77.8	30	43.3	2	4	90	0.00	30.166 
12:45	77.4	77.4	77.8	30	43.5	1	5	112	0.00	30.165 
12:50	77.2	77.2	77.7	29	42.5	3	7	90	0.00	30.165 
12:55	77.2	77.2	77.7	29	42.5	2	6	90	0.00	30.165 
13:00	78.1	78.1	78.2	31	45.0	1	3	68	0.00	30.154 
13:05	78.3	78.3	78.2	29	43.4	2	5	68	0.00	30.154 
13:10	77.6	77.6	77.9	30	43.7	2	5	90	0.00	30.154 
13:15	77.2	77.2	77.8	31	44.2	2	7	90	0.00	30.156 
13:20	77.2	77.2	77.6	28	41.6	2	4	90	0.00	30.156 
13:25	77.4	77.4	77.7	28	41.7	2	4	90	0.00	30.156 
13:30	77.0	77.0	77.8	32	44.9	1	2	90	0.00	30.154 
13:35	76.7	76.7	77.4	28	41.1	0	1	90	0.00	30.154 
13:40	76.3	76.3	77.3	29	41.7	1	3	90	0.00	30.154 
13:45	76.3	76.3	77.5	31	43.4	1	3	90	0.00	30.163 
13:50	76.1	76.1	77.4	32	44.1	1	4	90	0.00	30.163 
13:55	76.1	76.1	77.4	31	43.3	1	4	135	0.00	30.163 
14:00	76.1	76.1	77.4	31	43.3	0	3	135	0.00	30.161 
14:05	76.1	76.1	77.2	29	41.5	1	2	135	0.00	30.161 
14:10	76.1	76.1	77.4	31	43.3	0	1	135	0.00	30.161 
14:15	76.3	76.3	77.4	30	42.6	1	4	135	0.00	30.162 
14:20	76.8	76.8	77.5	29	42.1	0	3	90	0.00	30.162 
14:25	77.4	77.4	77.8	30	43.5	1	4	90	0.00	30.162 
14:30	77.6	77.6	77.9	29	42.8	1	2	90	0.00	30.158 
14:35	77.9	77.9	78.0	29	43.1	0	2	90	0.00	30.158 
14:40	78.1	78.1	78.2	30	44.1	0	2	90	0.00	30.158 
14:45	78.1	78.1	78.0	28	42.3	0	2	90	0.00	30.154 
14:50	78.5	78.5	78.2	28	42.7	1	3	90	0.00	30.154 
14:55	79.0	79.0	78.4	27	42.1	1	5	90	0.00	30.154 
15:00	79.4	79.4	78.8	30	45.2	1	2	90	0.00	30.150 
15:05	79.4	79.4	78.8	29	44.3	1	3	90	0.00	30.150 
15:10	79.0	79.0	78.6	30	44.9	1	3	90	0.00	30.150 
15:15	78.6	78.6	78.4	30	44.6	0	2	90	0.00	30.148 
15:20	79.0	79.0	78.8	32	46.6	0	1	90	0.00	30.148 
15:25	79.0	79.0	78.5	28	43.1	1	5	90	0.00	30.148 
15:30	78.8	78.8	78.5	30	44.7	1	3	112	0.00	30.143 
15:35	79.0	79.0	78.4	27	42.1	0	2	112	0.00	30.143 
15:40	79.4	79.4	78.7	27	42.5	1	5	90	0.00	30.143 
15:45	79.8	79.8	79.0	29	44.7	0	2	90	0.00	30.139 
15:50	79.8	79.8	79.0	29	44.7	1	3	270	0.00	30.139 
15:55	79.4	79.4	78.8	29	44.3	1	3	270	0.00	30.139 
16:00	79.2	79.2	78.9	32	46.8	1	2	112	0.00	30.137 
16:05	79.2	79.2	78.7	30	45.1	1	2	112	0.00	30.137 
16:10	79.0	79.0	78.5	28	43.1	1	3	90	0.00	30.137 
16:15	78.8	78.8	78.6	31	45.6	1	4	112	0.00	30.139 
16:20	78.6	78.6	78.5	31	45.4	1	3	112	0.00	30.139 
16:25	78.8	78.8	78.5	30	44.7	1	3	112	0.00	30.139 
16:30	79.0	79.0	78.6	29	44.0	2	5	90	0.00	30.137 
16:35	79.0	79.0	78.8	33	47.4	1	4	90	0.00	30.137 
16:40	79.2	79.2	78.6	28	43.3	1	5	90	0.00	30.137 
16:45	78.8	78.8	78.5	29	43.8	2	6	90	0.00	30.131 
16:50	78.8	78.8	78.6	31	45.6	1	3	112	0.00	30.131 
16:55	79.2	79.2	78.7	30	45.1	1	3	112	0.00	30.131 
17:00	79.4	79.4	78.8	30	45.2	0	3	90	0.00	30.130 
17:05	79.4	79.4	78.7	28	43.4	1	4	90	0.00	30.130 
17:10	79.4	79.4	78.8	29	44.3	0	2	90	0.00	30.130 
17:15	79.0	79.0	78.7	31	45.8	1	3	90	0.00	30.126 
17:20	78.8	78.8	78.5	29	43.8	1	4	90	0.00	30.126 
17:25	79.0	79.0	78.5	28	43.1	1	3	90	0.00	30.126 
17:30	79.2	79.2	78.7	30	45.1	1	3	135	0.00	30.124 
17:35	79.2	79.2	78.7	29	44.2	1	4	68	0.00	30.124 
17:40	79.2	79.2	78.5	27	42.3	1	3	68	0.00	30.124 
17:45	79.4	79.4	78.8	29	44.3	1	3	248	0.00	30.129 
17:50	79.2	79.2	78.7	30	45.1	1	3	90	0.00	30.129 
17:55	79.2	79.2	78.6	28	43.3	0	3	68	0.00	30.129 
18:00	79.0	79.0	78.5	28	43.1	0	3	270	0.00	30.127 
18:05	78.8	78.8	78.5	30	44.7	0	2	270	0.00	30.127 
18:10	78.8	78.8	78.6	31	45.6	0	2	270	0.00	30.127 
18:15	78.8	78.8	78.6	32	46.4	1	4	248	0.00	30.127 
18:20	78.6	78.6	78.5	31	45.4	1	3	90	0.00	30.127 
18:25	78.5	78.5	78.4	31	45.3	1	4	112	0.00	30.127 
18:30	78.5	78.5	78.5	32	46.2	0	2	112	0.00	30.123 
18:35	78.3	78.3	78.4	32	46.0	0	2	270	0.00	30.123 
18:40	78.1	78.1	78.3	32	45.8	0	1	270	0.00	30.123 
18:45	78.1	78.1	78.3	32	45.8	0	2	270	0.00	30.123 
18:50	77.9	77.9	78.3	33	46.5	0	3	248	0.00	30.123 
18:55	77.9	77.9	78.3	33	46.5	0	1	248	0.00	30.123 
19:00	77.7	77.7	78.2	34	47.1	0	2	248	0.00	30.122 
19:05	77.4	77.4	78.1	34	46.8	1	2	248	0.00	30.122 
19:10	77.2	77.2	77.9	33	45.8	1	3	248	0.00	30.122 
19:15	77.2	77.2	78.0	34	46.6	1	4	90	0.00	30.117 
19:20	77.2	77.2	78.0	34	46.6	1	4	90	0.00	30.117 
19:25	77.4	77.4	78.1	34	46.8	0	1	90	0.00	30.117 
19:30	77.4	77.4	78.1	35	47.6	0	2	90	0.00	30.117 
19:35	77.2	77.2	78.1	35	47.4	0	1	90	0.00	30.117 
19:40	76.8	76.8	77.9	36	47.8	1	3	90	0.00	30.117 
19:45	76.7	76.7	78.0	37	48.4	0	1	90	0.00	30.114 
19:50	76.7	76.7	78.0	38	49.2	0	1	90	0.00	30.114 
19:55	76.5	76.5	77.9	38	49.0	0	2	90	0.00	30.114 
20:00	76.3	76.3	77.8	38	48.8	0	1	90	0.00	30.119 
20:05	76.1	76.1	77.9	40	50.0	0	1	90	0.00	30.119 
20:10	76.0	76.0	77.8	39	49.2	0	1	90	0.00	30.119 
20:15	75.8	75.8	77.7	39	49.1	0	1	90	0.00	30.104 
20:20	75.4	75.4	77.7	42	50.7	0	1	90	0.00	30.104 
20:25	75.3	75.3	77.6	41	50.0	0	0	---	0.00	30.104 
20:30	75.1	75.1	77.6	41	49.8	0	1	90	0.00	30.109 
20:35	74.9	74.9	74.9	42	50.2	0	0	---	0.00	30.109 
20:40	74.7	74.7	74.7	42	50.1	0	0	---	0.00	30.109 
20:45	74.6	74.6	74.6	43	50.6	0	0	---	0.00	30.106 
20:50	74.4	74.4	74.4	43	50.4	0	0	---	0.00	30.106 
20:55	74.0	74.0	74.0	44	50.7	0	0	---	0.00	30.106 
21:00	73.9	73.9	73.9	44	50.6	0	0	---	0.00	30.106 
21:05	73.5	73.5	73.5	43	49.6	0	1	90	0.00	30.106 
21:10	73.3	73.3	73.3	43	49.4	0	0	---	0.00	30.106 
21:15	73.0	73.0	73.0	44	49.8	0	0	---	0.00	30.098 
21:20	72.8	72.8	72.8	44	49.6	0	0	---	0.00	30.098 
21:25	72.5	72.5	72.5	45	49.9	0	0	---	0.00	30.098 
21:30	72.1	72.1	72.1	46	50.2	0	0	---	0.00	30.100 
21:35	71.8	71.8	71.8	46	49.9	0	0	---	0.00	30.100 
21:40	71.6	71.6	71.6	46	49.7	0	0	---	0.00	30.100 
21:45	71.6	71.6	71.6	46	49.7	0	0	---	0.00	30.105 
21:50	71.6	71.6	71.6	47	50.3	0	1	90	0.00	30.105 
21:55	71.8	71.8	71.8	48	51.0	0	2	90	0.00	30.105 
22:00	72.0	72.0	72.0	48	51.2	1	2	90	0.00	30.104 
22:05	72.0	72.0	72.0	47	50.7	1	3	90	0.00	30.104 
22:10	71.8	71.8	71.8	47	50.5	1	4	90	0.00	30.104 
22:15	71.8	71.8	71.8	48	51.0	1	4	90	0.00	30.101 
22:20	71.6	71.6	71.6	48	50.9	0	3	90	0.00	30.101 
22:25	71.5	71.5	71.5	48	50.8	0	1	90	0.00	30.101 
22:30	71.1	71.1	71.1	48	50.4	0	2	90	0.00	30.106 
22:35	70.9	70.9	70.9	48	50.2	1	3	90	0.00	30.106 
22:40	70.8	70.8	70.8	47	49.6	1	2	90	0.00	30.106 
22:45	70.6	70.6	70.6	46	48.8	1	3	90	0.00	30.104 
22:50	70.6	70.6	70.6	46	48.8	0	2	112	0.00	30.104 
22:55	70.4	70.4	70.4	46	48.6	0	2	112	0.00	30.104 
23:00	70.3	70.3	70.3	46	48.5	0	3	112	0.00	30.095 
23:05	70.3	70.3	70.3	46	48.5	0	3	112	0.00	30.095 
23:10	70.1	70.1	70.1	46	48.3	1	3	112	0.00	30.095 
23:15	69.9	69.9	69.9	46	48.2	0	1	112	0.00	30.093 
23:20	69.8	69.8	69.8	47	48.6	0	1	112	0.00	30.093 
23:25	69.6	69.6	69.6	46	47.9	0	2	112	0.00	30.093 
23:30	69.6	69.6	69.6	46	47.9	1	4	112	0.00	30.091 
23:35	69.6	69.6	69.6	46	47.9	0	3	112	0.00	30.091 
23:40	69.6	69.6	69.6	46	47.9	0	1	112	0.00	30.091 
23:45	69.4	69.4	69.4	47	48.3	0	1	112	0.00	30.083 
23:50	69.3	69.3	69.3	47	48.2	0	1	112	0.00	30.083 
23:55	69.3	69.3	69.3	47	48.2	0	1	112	0.00	30.083 

CoCoRaHS
IN-AL-39
A2 Web Hosting
Creative Commons License
GoDaddy
search engine by freefind advanced

loaded 2018-11-20 06:28:09 • last modified 2010-11-18 10:43:29
Privacy PolicyDisclaimer
• wx.awcolley.com is powered by PmWiki v.2002016 •
• all content (unless otherwise noted) © 2018 A W Colley